sensor_id;sensor_type;location;lat;lon;timestamp;pressure;altitude;pressure_sealevel;temperature;humidity
21234;BME280;10774;42.178;26.578;2023-01-27T00:02:16;99221.00;;;7.50;100.00
21234;BME280;10774;42.178;26.578;2023-01-27T00:04:41;99233.28;;;7.67;100.00
21234;BME280;10774;42.178;26.578;2023-01-27T00:07:07;99234.34;;;7.65;100.00
21234;BME280;10774;42.178;26.578;2023-01-27T00:09:32;99222.03;;;7.48;100.00
21234;BME280;10774;42.178;26.578;2023-01-27T00:11:58;99255.72;;;7.65;100.00
21234;BME280;10774;42.178;26.578;2023-01-27T00:14:41;99265.06;;;7.57;100.00
21234;BME280;10774;42.178;26.578;2023-01-27T00:17:07;99270.50;;;7.42;100.00
21234;BME280;10774;42.178;26.578;2023-01-27T00:19:32;99243.09;;;7.38;100.00
21234;BME280;10774;42.178;26.578;2023-01-27T00:21:58;99231.69;;;7.36;100.00
21234;BME280;10774;42.178;26.578;2023-01-27T00:24:41;99230.91;;;7.48;100.00
21234;BME280;10774;42.178;26.578;2023-01-27T00:27:08;99196.97;;;7.36;100.00
21234;BME280;10774;42.178;26.578;2023-01-27T00:29:34;99185.72;;;7.31;100.00
21234;BME280;10774;42.178;26.578;2023-01-27T00:32:00;99209.94;;;7.42;100.00
21234;BME280;10774;42.178;26.578;2023-01-27T00:34:44;99215.00;;;7.32;100.00
21234;BME280;10774;42.178;26.578;2023-01-27T00:37:10;99229.75;;;7.52;100.00
21234;BME280;10774;42.178;26.578;2023-01-27T00:39:35;99236.91;;;7.52;100.00
21234;BME280;10774;42.178;26.578;2023-01-27T00:42:01;99252.66;;;7.56;100.00
21234;BME280;10774;42.178;26.578;2023-01-27T00:44:26;99228.72;;;7.55;100.00
21234;BME280;10774;42.178;26.578;2023-01-27T00:46:52;99209.09;;;7.42;100.00
21234;BME280;10774;42.178;26.578;2023-01-27T00:49:17;99218.63;;;7.46;100.00
21234;BME280;10774;42.178;26.578;2023-01-27T00:51:43;99210.31;;;7.50;100.00
21234;BME280;10774;42.178;26.578;2023-01-27T00:54:09;99199.34;;;7.41;100.00
21234;BME280;10774;42.178;26.578;2023-01-27T00:56:34;99206.88;;;7.48;100.00
21234;BME280;10774;42.178;26.578;2023-01-27T00:59:00;99218.69;;;7.58;100.00
21234;BME280;10774;42.178;26.578;2023-01-27T01:01:26;99223.84;;;7.62;100.00
21234;BME280;10774;42.178;26.578;2023-01-27T01:03:51;99229.59;;;7.55;100.00
21234;BME280;10774;42.178;26.578;2023-01-27T01:06:18;99229.59;;;7.55;100.00
21234;BME280;10774;42.178;26.578;2023-01-27T01:08:44;99225.00;;;7.57;100.00
21234;BME280;10774;42.178;26.578;2023-01-27T01:11:12;99220.63;;;7.56;100.00
21234;BME280;10774;42.178;26.578;2023-01-27T01:13:39;99230.03;;;7.62;100.00
21234;BME280;10774;42.178;26.578;2023-01-27T01:16:06;99224.44;;;7.52;100.00
21234;BME280;10774;42.178;26.578;2023-01-27T01:18:32;99239.69;;;7.65;100.00
21234;BME280;10774;42.178;26.578;2023-01-27T01:20:57;99231.28;;;7.56;100.00
21234;BME280;10774;42.178;26.578;2023-01-27T01:23:23;99250.94;;;7.55;100.00
21234;BME280;10774;42.178;26.578;2023-01-27T01:25:56;99237.19;;;7.47;100.00
21234;BME280;10774;42.178;26.578;2023-01-27T01:28:22;99228.13;;;7.64;100.00
21234;BME280;10774;42.178;26.578;2023-01-27T01:30:47;99222.09;;;7.75;100.00
21234;BME280;10774;42.178;26.578;2023-01-27T01:33:13;99192.75;;;7.60;100.00
21234;BME280;10774;42.178;26.578;2023-01-27T01:35:39;99214.09;;;7.75;100.00
21234;BME280;10774;42.178;26.578;2023-01-27T01:38:05;99194.06;;;7.82;100.00
21234;BME280;10774;42.178;26.578;2023-01-27T01:40:30;99189.47;;;7.70;100.00
21234;BME280;10774;42.178;26.578;2023-01-27T01:43:03;99201.50;;;7.77;100.00
21234;BME280;10774;42.178;26.578;2023-01-27T01:48:08;99210.28;;;7.79;100.00
21234;BME280;10774;42.178;26.578;2023-01-27T01:50:36;99211.63;;;7.86;100.00
21234;BME280;10774;42.178;26.578;2023-01-27T01:53:05;99186.53;;;7.74;100.00
21234;BME280;10774;42.178;26.578;2023-01-27T01:55:32;99187.19;;;7.78;100.00
21234;BME280;10774;42.178;26.578;2023-01-27T01:57:59;99165.81;;;7.78;100.00
21234;BME280;10774;42.178;26.578;2023-01-27T02:00:25;99145.44;;;7.63;100.00
21234;BME280;10774;42.178;26.578;2023-01-27T02:02:50;99148.50;;;7.71;100.00
21234;BME280;10774;42.178;26.578;2023-01-27T02:05:23;99144.41;;;7.65;100.00
21234;BME280;10774;42.178;26.578;2023-01-27T02:10:38;99190.03;;;7.89;100.00
21234;BME280;10774;42.178;26.578;2023-01-27T02:13:04;99191.28;;;7.83;100.00
21234;BME280;10774;42.178;26.578;2023-01-27T02:15:30;99188.31;;;7.88;100.00
21234;BME280;10774;42.178;26.578;2023-01-27T02:17:56;99169.41;;;7.91;100.00
21234;BME280;10774;42.178;26.578;2023-01-27T02:20:43;99176.81;;;8.00;100.00
21234;BME280;10774;42.178;26.578;2023-01-27T02:26:15;99159.44;;;7.80;100.00
21234;BME280;10774;42.178;26.578;2023-01-27T02:28:42;99165.63;;;7.81;100.00
21234;BME280;10774;42.178;26.578;2023-01-27T02:31:07;99170.75;;;7.84;100.00
21234;BME280;10774;42.178;26.578;2023-01-27T02:33:33;99175.91;;;7.87;100.00
21234;BME280;10774;42.178;26.578;2023-01-27T02:36:02;99167.59;;;7.92;100.00
21234;BME280;10774;42.178;26.578;2023-01-27T02:38:33;99151.75;;;7.89;100.00
21234;BME280;10774;42.178;26.578;2023-01-27T02:41:27;99137.09;;;7.81;100.00
21234;BME280;10774;42.178;26.578;2023-01-27T02:43:55;99142.84;;;7.75;100.00
21234;BME280;10774;42.178;26.578;2023-01-27T02:46:21;99156.44;;;7.85;100.00
21234;BME280;10774;42.178;26.578;2023-01-27T02:48:47;99167.13;;;7.85;100.00
21234;BME280;10774;42.178;26.578;2023-01-27T02:51:12;99173.81;;;7.92;100.00
21234;BME280;10774;42.178;26.578;2023-01-27T02:53:38;99160.13;;;7.97;100.00
21234;BME280;10774;42.178;26.578;2023-01-27T02:56:04;99156.94;;;8.04;100.00
21234;BME280;10774;42.178;26.578;2023-01-27T02:58:30;99146.56;;;8.00;100.00
21234;BME280;10774;42.178;26.578;2023-01-27T03:00:55;99135.75;;;8.01;100.00
21234;BME280;10774;42.178;26.578;2023-01-27T03:03:21;99140.72;;;8.07;100.00
21234;BME280;10774;42.178;26.578;2023-01-27T03:05:46;99131.31;;;8.02;100.00
21234;BME280;10774;42.178;26.578;2023-01-27T03:08:16;99137.53;;;8.15;100.00
21234;BME280;10774;42.178;26.578;2023-01-27T03:10:42;99121.47;;;8.02;100.00
21234;BME280;10774;42.178;26.578;2023-01-27T03:13:07;99124.56;;;7.96;100.00
21234;BME280;10774;42.178;26.578;2023-01-27T03:15:33;99135.75;;;8.01;100.00
21234;BME280;10774;42.178;26.578;2023-01-27T03:18:17;99142.00;;;8.02;100.00
21234;BME280;10774;42.178;26.578;2023-01-27T03:20:45;99134.81;;;8.02;100.00
21234;BME280;10774;42.178;26.578;2023-01-27T03:23:11;99124.47;;;8.10;100.00
21234;BME280;10774;42.178;26.578;2023-01-27T03:25:45;99113.03;;;8.08;100.00
21234;BME280;10774;42.178;26.578;2023-01-27T03:28:11;99117.31;;;8.11;100.00
21234;BME280;10774;42.178;26.578;2023-01-27T03:30:38;99131.31;;;8.15;100.00
21234;BME280;10774;42.178;26.578;2023-01-27T03:33:04;99105.75;;;8.10;100.00
21234;BME280;10774;42.178;26.578;2023-01-27T03:35:33;99122.50;;;8.00;100.00
21234;BME280;10774;42.178;26.578;2023-01-27T03:38:08;99122.25;;;7.90;100.00
21234;BME280;10774;42.178;26.578;2023-01-27T03:40:53;99126.81;;;8.02;100.00
21234;BME280;10774;42.178;26.578;2023-01-27T03:43:37;99113.09;;;7.94;100.00
21234;BME280;10774;42.178;26.578;2023-01-27T03:46:21;99122.34;;;7.76;100.00
21234;BME280;10774;42.178;26.578;2023-01-27T03:48:54;99113.22;;;7.66;100.00
21234;BME280;10774;42.178;26.578;2023-01-27T03:51:22;99117.06;;;7.47;100.00
21234;BME280;10774;42.178;26.578;2023-01-27T03:53:48;99101.03;;;7.47;100.00
21234;BME280;10774;42.178;26.578;2023-01-27T03:56:15;99112.56;;;7.75;100.00
21234;BME280;10774;42.178;26.578;2023-01-27T03:58:41;99110.16;;;7.84;100.00
21234;BME280;10774;42.178;26.578;2023-01-27T04:01:13;99101.56;;;7.67;100.00
21234;BME280;10774;42.178;26.578;2023-01-27T04:03:40;99117.69;;;7.65;100.00
21234;BME280;10774;42.178;26.578;2023-01-27T04:06:26;99113.22;;;7.66;100.00
21234;BME280;10774;42.178;26.578;2023-01-27T04:09:11;99111.53;;;7.77;100.00
21234;BME280;10774;42.178;26.578;2023-01-27T04:11:37;99087.59;;;7.76;100.00
21234;BME280;10774;42.178;26.578;2023-01-27T04:14:23;99095.53;;;7.90;100.00
21234;BME280;10774;42.178;26.578;2023-01-27T04:16:52;99098.19;;;7.77;100.00
21234;BME280;10774;42.178;26.578;2023-01-27T04:19:18;99105.69;;;7.85;100.00
21234;BME280;10774;42.178;26.578;2023-01-27T04:21:44;99099.59;;;7.83;100.00
21234;BME280;10774;42.178;26.578;2023-01-27T04:24:11;99094.06;;;7.86;100.00
21234;BME280;10774;42.178;26.578;2023-01-27T04:27:03;99106.59;;;7.98;100.00
21234;BME280;10774;42.178;26.578;2023-01-27T04:29:35;99094.44;;;8.07;100.00
21234;BME280;10774;42.178;26.578;2023-01-27T04:32:02;99071.44;;;8.04;100.00
21234;BME280;10774;42.178;26.578;2023-01-27T04:34:28;99063.69;;;7.87;100.00
21234;BME280;10774;42.178;26.578;2023-01-27T04:36:55;99069.03;;;7.87;100.00
21234;BME280;10774;42.178;26.578;2023-01-27T04:39:21;99049.28;;;7.63;100.00
21234;BME280;10774;42.178;26.578;2023-01-27T04:41:46;99039.47;;;7.63;100.00
21234;BME280;10774;42.178;26.578;2023-01-27T04:44:14;99047.78;;;7.58;100.00
21234;BME280;10774;42.178;26.578;2023-01-27T04:46:39;99070.06;;;7.72;100.00
21234;BME280;10774;42.178;26.578;2023-01-27T04:49:05;99060.78;;;7.50;100.00
21234;BME280;10774;42.178;26.578;2023-01-27T04:51:33;99057.75;;;7.42;100.00
21234;BME280;10774;42.178;26.578;2023-01-27T04:53:59;99064.63;;;7.46;100.00
21234;BME280;10774;42.178;26.578;2023-01-27T04:56:29;99073.00;;;7.54;100.00
21234;BME280;10774;42.178;26.578;2023-01-27T04:59:03;99077.84;;;7.48;100.00
21234;BME280;10774;42.178;26.578;2023-01-27T05:01:29;99084.31;;;7.58;100.00
21234;BME280;10774;42.178;26.578;2023-01-27T05:03:54;99082.03;;;7.52;100.00
21234;BME280;10774;42.178;26.578;2023-01-27T05:06:20;99078.41;;;7.53;100.00
21234;BME280;10774;42.178;26.578;2023-01-27T05:08:46;99081.56;;;7.59;100.00
21234;BME280;10774;42.178;26.578;2023-01-27T05:11:12;99086.13;;;7.57;100.00
21234;BME280;10774;42.178;26.578;2023-01-27T05:13:38;99088.22;;;7.67;100.00
21234;BME280;10774;42.178;26.578;2023-01-27T05:16:11;99083.69;;;7.54;100.00
21234;BME280;10774;42.178;26.578;2023-01-27T05:18:38;99090.13;;;7.65;100.00
21234;BME280;10774;42.178;26.578;2023-01-27T05:21:05;99087.53;;;7.63;100.00
21234;BME280;10774;42.178;26.578;2023-01-27T05:23:31;99089.63;;;7.72;100.00
21234;BME280;10774;42.178;26.578;2023-01-27T05:26:21;99071.88;;;7.71;100.00
21234;BME280;10774;42.178;26.578;2023-01-27T05:28:47;99077.31;;;7.70;100.00
21234;BME280;10774;42.178;26.578;2023-01-27T05:31:28;99078.56;;;7.64;100.00
21234;BME280;10774;42.178;26.578;2023-01-27T05:33:57;99087.13;;;7.69;100.00
21234;BME280;10774;42.178;26.578;2023-01-27T05:36:24;99073.69;;;7.71;100.00
21234;BME280;10774;42.178;26.578;2023-01-27T05:38:50;99069.47;;;7.81;100.00
21234;BME280;10774;42.178;26.578;2023-01-27T05:41:17;99080.34;;;7.78;100.00
21234;BME280;10774;42.178;26.578;2023-01-27T05:43:44;99070.25;;;7.69;100.00
21234;BME280;10774;42.178;26.578;2023-01-27T05:46:13;99079.03;;;7.71;100.00
21234;BME280;10774;42.178;26.578;2023-01-27T05:48:41;99082.03;;;7.79;100.00
21234;BME280;10774;42.178;26.578;2023-01-27T05:51:08;99064.50;;;7.75;100.00
21234;BME280;10774;42.178;26.578;2023-01-27T05:53:34;99061.75;;;7.76;100.00
21234;BME280;10774;42.178;26.578;2023-01-27T05:56:00;99056.81;;;7.70;100.00
21234;BME280;10774;42.178;26.578;2023-01-27T05:58:26;99046.75;;;7.61;100.00
21234;BME280;10774;42.178;26.578;2023-01-27T06:00:52;99038.31;;;7.40;100.00
21234;BME280;10774;42.178;26.578;2023-01-27T06:03:18;99031.72;;;7.19;100.00
21234;BME280;10774;42.178;26.578;2023-01-27T06:05:54;99055.59;;;6.93;100.00
21234;BME280;10774;42.178;26.578;2023-01-27T06:08:22;99065.00;;;7.13;100.00
21234;BME280;10774;42.178;26.578;2023-01-27T06:10:48;99068.31;;;7.17;100.00
21234;BME280;10774;42.178;26.578;2023-01-27T06:13:13;99065.81;;;7.28;100.00
21234;BME280;10774;42.178;26.578;2023-01-27T06:15:40;99068.66;;;7.39;100.00
21234;BME280;10774;42.178;26.578;2023-01-27T06:18:06;99070.41;;;7.53;100.00
21234;BME280;10774;42.178;26.578;2023-01-27T06:20:32;99080.94;;;7.69;100.00
21234;BME280;10774;42.178;26.578;2023-01-27T06:22:57;99074.41;;;7.60;100.00
21234;BME280;10774;42.178;26.578;2023-01-27T06:25:23;99108.59;;;7.68;100.00
21234;BME280;10774;42.178;26.578;2023-01-27T06:27:53;99110.03;;;7.73;100.00
21234;BME280;10774;42.178;26.578;2023-01-27T06:30:18;99107.47;;;7.72;100.00
21234;BME280;10774;42.178;26.578;2023-01-27T06:32:44;99110.47;;;7.80;100.00
21234;BME280;10774;42.178;26.578;2023-01-27T06:35:09;99119.69;;;7.89;100.00
21234;BME280;10774;42.178;26.578;2023-01-27T06:37:34;99137.34;;;7.91;100.00
21234;BME280;10774;42.178;26.578;2023-01-27T06:40:01;99123.13;;;7.91;100.00
21234;BME280;10774;42.178;26.578;2023-01-27T06:42:26;99118.44;;;7.94;100.00
21234;BME280;10774;42.178;26.578;2023-01-27T06:44:52;99120.38;;;7.92;100.00
21234;BME280;10774;42.178;26.578;2023-01-27T06:47:17;99120.13;;;7.95;100.00
21234;BME280;10774;42.178;26.578;2023-01-27T06:49:43;99114.59;;;7.98;100.00
21234;BME280;10774;42.178;26.578;2023-01-27T06:52:08;99139.09;;;8.05;100.00
21234;BME280;10774;42.178;26.578;2023-01-27T06:54:33;99122.50;;;8.00;100.00
21234;BME280;10774;42.178;26.578;2023-01-27T06:56:59;99128.78;;;8.26;100.00
21234;BME280;10774;42.178;26.578;2023-01-27T06:59:24;99127.91;;;8.12;100.00
21234;BME280;10774;42.178;26.578;2023-01-27T07:01:50;99139.06;;;8.32;100.00
21234;BME280;10774;42.178;26.578;2023-01-27T07:04:15;99139.91;;;8.20;100.00
21234;BME280;10774;42.178;26.578;2023-01-27T07:06:40;99139.91;;;8.20;100.00
21234;BME280;10774;42.178;26.578;2023-01-27T07:09:06;99139.03;;;8.19;100.00
21234;BME280;10774;42.178;26.578;2023-01-27T07:11:31;99128.03;;;8.24;100.00
21234;BME280;10774;42.178;26.578;2023-01-27T07:13:57;99126.88;;;8.28;100.00
21234;BME280;10774;42.178;26.578;2023-01-27T07:16:22;99095.50;;;8.17;100.00
21234;BME280;10774;42.178;26.578;2023-01-27T07:18:48;99095.00;;;8.25;100.00
21234;BME280;10774;42.178;26.578;2023-01-27T07:21:13;99103.06;;;8.37;100.00
21234;BME280;10774;42.178;26.578;2023-01-27T07:23:38;99084.72;;;8.19;100.00
21234;BME280;10774;42.178;26.578;2023-01-27T07:26:04;99081.94;;;8.33;100.00
21234;BME280;10774;42.178;26.578;2023-01-27T07:28:29;99068.91;;;8.28;100.00
21234;BME280;10774;42.178;26.578;2023-01-27T07:30:59;99067.59;;;8.21;100.00
21234;BME280;10774;42.178;26.578;2023-01-27T07:33:25;99074.66;;;8.09;100.00
21234;BME280;10774;42.178;26.578;2023-01-27T07:35:50;99063.47;;;7.90;100.00
21234;BME280;10774;42.178;26.578;2023-01-27T07:38:16;99062.44;;;7.93;100.00
21234;BME280;10774;42.178;26.578;2023-01-27T07:40:41;99068.44;;;8.09;100.00
21234;BME280;10774;42.178;26.578;2023-01-27T07:43:06;99052.59;;;8.06;100.00
21234;BME280;10774;42.178;26.578;2023-01-27T07:45:32;99057.78;;;8.22;100.00
21234;BME280;10774;42.178;26.578;2023-01-27T07:48:02;99054.69;;;8.28;100.00
21234;BME280;10774;42.178;26.578;2023-01-27T07:50:28;99054.72;;;7.88;100.00
21234;BME280;10774;42.178;26.578;2023-01-27T07:52:58;99057.59;;;7.85;100.00
21234;BME280;10774;42.178;26.578;2023-01-27T07:55:24;99046.16;;;7.83;100.00
21234;BME280;10774;42.178;26.578;2023-01-27T07:57:52;99034.03;;;7.38;100.00
21234;BME280;10774;42.178;26.578;2023-01-27T08:00:19;99022.16;;;7.29;100.00
21234;BME280;10774;42.178;26.578;2023-01-27T08:02:49;99025.38;;;7.34;100.00
21234;BME280;10774;42.178;26.578;2023-01-27T08:05:15;99033.19;;;7.37;100.00
21234;BME280;10774;42.178;26.578;2023-01-27T08:07:41;99031.56;;;7.62;100.00
21234;BME280;10774;42.178;26.578;2023-01-27T08:10:07;99043.53;;;7.69;100.00
21234;BME280;10774;42.178;26.578;2023-01-27T08:12:32;99039.31;;;7.79;100.00
21234;BME280;10774;42.178;26.578;2023-01-27T08:14:57;99040.41;;;7.89;100.00
21234;BME280;10774;42.178;26.578;2023-01-27T08:17:23;99041.28;;;8.02;100.00
21234;BME280;10774;42.178;26.578;2023-01-27T08:19:48;99058.41;;;8.25;100.00
21234;BME280;10774;42.178;26.578;2023-01-27T08:22:16;99063.06;;;8.36;100.00
21234;BME280;10774;42.178;26.578;2023-01-27T08:24:45;99085.97;;;8.53;100.00
21234;BME280;10774;42.178;26.578;2023-01-27T08:27:11;99079.31;;;8.58;100.00
21234;BME280;10774;42.178;26.578;2023-01-27T08:29:36;99063.81;;;8.63;100.00
21234;BME280;10774;42.178;26.578;2023-01-27T08:32:02;99087.78;;;8.78;100.00
21234;BME280;10774;42.178;26.578;2023-01-27T08:34:27;99073.88;;;8.73;100.00
21234;BME280;10774;42.178;26.578;2023-01-27T08:36:53;99070.03;;;8.77;100.00
21234;BME280;10774;42.178;26.578;2023-01-27T08:39:18;99075.78;;;8.83;100.00
21234;BME280;10774;42.178;26.578;2023-01-27T08:41:43;99071.28;;;8.84;100.00
21234;BME280;10774;42.178;26.578;2023-01-27T08:44:09;99059.41;;;8.88;100.00
21234;BME280;10774;42.178;26.578;2023-01-27T08:46:34;99060.47;;;8.98;100.00
21234;BME280;10774;42.178;26.578;2023-01-27T08:49:00;99046.25;;;8.98;100.00
21234;BME280;10774;42.178;26.578;2023-01-27T08:51:25;99061.28;;;9.11;100.00
21234;BME280;10774;42.178;26.578;2023-01-27T08:53:51;99044.69;;;9.06;100.00
21234;BME280;10774;42.178;26.578;2023-01-27T08:56:16;99038.94;;;9.12;100.00
21234;BME280;10774;42.178;26.578;2023-01-27T08:58:42;99040.19;;;9.20;100.00
21234;BME280;10774;42.178;26.578;2023-01-27T09:01:10;99048.75;;;9.25;100.00
21234;BME280;10774;42.178;26.578;2023-01-27T09:03:35;99049.19;;;9.19;100.00
21234;BME280;10774;42.178;26.578;2023-01-27T09:06:02;99049.19;;;9.19;100.00
21234;BME280;10774;42.178;26.578;2023-01-27T09:08:27;99045.94;;;9.26;100.00
21234;BME280;10774;42.178;26.578;2023-01-27T09:10:53;99040.41;;;9.16;100.00
21234;BME280;10774;42.178;26.578;2023-01-27T09:13:19;99035.28;;;9.13;100.00
21234;BME280;10774;42.178;26.578;2023-01-27T09:15:46;99058.81;;;9.21;100.00
21234;BME280;10774;42.178;26.578;2023-01-27T09:18:12;99037.25;;;8.99;100.00
21234;BME280;10774;42.178;26.578;2023-01-27T09:20:37;99041.59;;;9.12;100.00
21234;BME280;10774;42.178;26.578;2023-01-27T09:23:04;99039.72;;;9.26;100.00
21234;BME280;10774;42.178;26.578;2023-01-27T09:25:30;99032.88;;;9.22;100.00
21234;BME280;10774;42.178;26.578;2023-01-27T09:27:57;99008.84;;;9.33;100.00
21234;BME280;10774;42.178;26.578;2023-01-27T09:30:23;99012.81;;;9.40;100.00
21234;BME280;10774;42.178;26.578;2023-01-27T09:32:50;98997.63;;;9.52;100.00
21234;BME280;10774;42.178;26.578;2023-01-27T09:35:15;98996.38;;;9.68;100.00
21234;BME280;10774;42.178;26.578;2023-01-27T09:37:49;98981.47;;;9.64;100.00
21234;BME280;10774;42.178;26.578;2023-01-27T09:40:30;98973.16;;;9.45;100.00
21234;BME280;10774;42.178;26.578;2023-01-27T09:54:09;98960.75;;;9.90;100.00
21234;BME280;10774;42.178;26.578;2023-01-27T09:56:49;98964.66;;;10.66;100.00
21234;BME280;10774;42.178;26.578;2023-01-27T10:10:46;98938.50;;;11.02;100.00
21234;BME280;10774;42.178;26.578;2023-01-27T10:13:27;98942.84;;;11.14;100.00
21234;BME280;10774;42.178;26.578;2023-01-27T10:19:04;98922.72;;;11.09;100.00
21234;BME280;10774;42.178;26.578;2023-01-27T10:27:32;98919.97;;;11.84;100.00
21234;BME280;10774;42.178;26.578;2023-01-27T10:29:57;98912.81;;;12.15;100.00
21234;BME280;10774;42.178;26.578;2023-01-27T10:32:33;98917.06;;;12.18;100.00
21234;BME280;10774;42.178;26.578;2023-01-27T10:35:16;98907.53;;;12.35;100.00
21234;BME280;10774;42.178;26.578;2023-01-27T10:37:58;98907.66;;;12.33;100.00
21234;BME280;10774;42.178;26.578;2023-01-27T10:43:53;98905.88;;;11.71;100.00
21234;BME280;10774;42.178;26.578;2023-01-27T10:49:20;98904.44;;;11.35;100.00
21234;BME280;10774;42.178;26.578;2023-01-27T10:51:58;98902.84;;;11.32;100.00
21234;BME280;10774;42.178;26.578;2023-01-27T10:54:37;98890.56;;;11.30;100.00
21234;BME280;10774;42.178;26.578;2023-01-27T10:57:10;98894.59;;;11.24;100.00
21234;BME280;10774;42.178;26.578;2023-01-27T11:00:04;98893.38;;;10.85;100.00
21234;BME280;10774;42.178;26.578;2023-01-27T11:02:39;98882.75;;;10.83;100.00
21234;BME280;10774;42.178;26.578;2023-01-27T11:05:08;98875.34;;;10.64;100.00
21234;BME280;10774;42.178;26.578;2023-01-27T11:07:45;98886.00;;;10.55;100.00
21234;BME280;10774;42.178;26.578;2023-01-27T11:10:18;98890.59;;;10.64;100.00
21234;BME280;10774;42.178;26.578;2023-01-27T11:12:51;98860.97;;;10.65;100.00
21234;BME280;10774;42.178;26.578;2023-01-27T11:15:32;98862.06;;;10.63;100.00
21234;BME280;10774;42.178;26.578;2023-01-27T11:18:18;98874.88;;;10.48;100.00
21234;BME280;10774;42.178;26.578;2023-01-27T11:20:48;98867.09;;;10.45;100.00
21234;BME280;10774;42.178;26.578;2023-01-27T11:23:21;98857.59;;;10.41;100.00
21234;BME280;10774;42.178;26.578;2023-01-27T11:28:54;98863.69;;;10.32;100.00
21234;BME280;10774;42.178;26.578;2023-01-27T11:31:54;98887.81;;;10.43;100.00
21234;BME280;10774;42.178;26.578;2023-01-27T11:34:30;98874.88;;;10.14;100.00
21234;BME280;10774;42.178;26.578;2023-01-27T11:36:58;98879.75;;;10.09;100.00
21234;BME280;10774;42.178;26.578;2023-01-27T11:39:26;98887.78;;;9.98;100.00
21234;BME280;10774;42.178;26.578;2023-01-27T11:41:56;98887.03;;;9.85;100.00
21234;BME280;10774;42.178;26.578;2023-01-27T11:44:26;98894.41;;;9.70;100.00
21234;BME280;10774;42.178;26.578;2023-01-27T11:46:54;98886.03;;;9.75;100.00
21234;BME280;10774;42.178;26.578;2023-01-27T11:49:28;98877.38;;;9.60;100.00
21234;BME280;10774;42.178;26.578;2023-01-27T11:52:09;98885.25;;;9.50;100.00
21234;BME280;10774;42.178;26.578;2023-01-27T11:54:40;98905.63;;;9.29;100.00
21234;BME280;10774;42.178;26.578;2023-01-27T11:57:16;98881.38;;;8.95;100.00
21234;BME280;10774;42.178;26.578;2023-01-27T11:59:44;98896.72;;;8.80;100.00
21234;BME280;10774;42.178;26.578;2023-01-27T12:04:56;98891.75;;;8.76;100.00
21234;BME280;10774;42.178;26.578;2023-01-27T12:07:36;98889.81;;;8.78;100.00
21234;BME280;10774;42.178;26.578;2023-01-27T12:10:21;98871.06;;;8.78;100.00
21234;BME280;10774;42.178;26.578;2023-01-27T12:12:47;98880.31;;;8.98;100.00
21234;BME280;10774;42.178;26.578;2023-01-27T12:15:17;98870.06;;;8.92;100.00
21234;BME280;10774;42.178;26.578;2023-01-27T12:17:49;98885.41;;;9.01;100.00
21234;BME280;10774;42.178;26.578;2023-01-27T12:22:44;98885.16;;;8.93;100.00
21234;BME280;10774;42.178;26.578;2023-01-27T12:25:18;98882.66;;;9.02;100.00
21234;BME280;10774;42.178;26.578;2023-01-27T12:27:50;98868.78;;;8.60;100.00
21234;BME280;10774;42.178;26.578;2023-01-27T12:30:21;98871.41;;;8.24;100.00
21234;BME280;10774;42.178;26.578;2023-01-27T12:32:47;98893.53;;;8.26;100.00
21234;BME280;10774;42.178;26.578;2023-01-27T12:38:44;98875.78;;;8.50;100.00
21234;BME280;10774;42.178;26.578;2023-01-27T12:41:06;98894.50;;;8.50;100.00
21234;BME280;10774;42.178;26.578;2023-01-27T12:43:58;98877.47;;;8.51;100.00
21234;BME280;10774;42.178;26.578;2023-01-27T12:46:28;98885.81;;;8.59;100.00
21234;BME280;10774;42.178;26.578;2023-01-27T12:49:09;98892.09;;;8.58;100.00
21234;BME280;10774;42.178;26.578;2023-01-27T12:52:23;98887.84;;;8.56;100.00
21234;BME280;10774;42.178;26.578;2023-01-27T12:54:32;98893.31;;;8.54;100.00
21234;BME280;10774;42.178;26.578;2023-01-27T12:57:03;98896.97;;;8.28;100.00
21234;BME280;10774;42.178;26.578;2023-01-27T12:59:30;98872.78;;;8.17;100.00
21234;BME280;10774;42.178;26.578;2023-01-27T13:04:24;98889.88;;;8.52;100.00
21234;BME280;10774;42.178;26.578;2023-01-27T13:07:11;98882.81;;;8.51;100.00
21234;BME280;10774;42.178;26.578;2023-01-27T13:09:47;98887.13;;;8.41;100.00
21234;BME280;10774;42.178;26.578;2023-01-27T13:14:44;98884.44;;;8.41;100.00
21234;BME280;10774;42.178;26.578;2023-01-27T13:20:36;98885.44;;;8.15;100.00
21234;BME280;10774;42.178;26.578;2023-01-27T13:23:12;98899.66;;;8.28;100.00
21234;BME280;10774;42.178;26.578;2023-01-27T13:25:46;98878.16;;;8.17;100.00
21234;BME280;10774;42.178;26.578;2023-01-27T13:28:19;98894.31;;;8.28;100.00
21234;BME280;10774;42.178;26.578;2023-01-27T13:30:50;98895.38;;;8.12;100.00
21234;BME280;10774;42.178;26.578;2023-01-27T13:33:41;98874.13;;;7.98;100.00
21234;BME280;10774;42.178;26.578;2023-01-27T13:36:19;98883.53;;;7.91;100.00
21234;BME280;10774;42.178;26.578;2023-01-27T13:42:11;98899.03;;;7.86;100.00
21234;BME280;10774;42.178;26.578;2023-01-27T13:44:48;98878.41;;;7.75;100.00
21234;BME280;10774;42.178;26.578;2023-01-27T13:47:20;98911.97;;;7.92;100.00
21234;BME280;10774;42.178;26.578;2023-01-27T13:49:53;98904.66;;;7.69;100.00
21234;BME280;10774;42.178;26.578;2023-01-27T13:52:23;98918.56;;;7.61;100.00
21234;BME280;10774;42.178;26.578;2023-01-27T13:54:49;98900.81;;;7.73;100.00
21234;BME280;10774;42.178;26.578;2023-01-27T13:58:00;98910.47;;;7.75;100.00
21234;BME280;10774;42.178;26.578;2023-01-27T14:00:29;98921.09;;;7.63;100.00
21234;BME280;10774;42.178;26.578;2023-01-27T14:09:07;98920.25;;;7.62;100.00
21234;BME280;10774;42.178;26.578;2023-01-27T14:11:51;98902.22;;;7.66;100.00
21234;BME280;10774;42.178;26.578;2023-01-27T14:23:03;98910.81;;;6.77;100.00
21234;BME280;10774;42.178;26.578;2023-01-27T14:25:48;98924.44;;;6.72;100.00
21234;BME280;10774;42.178;26.578;2023-01-27T14:31:34;98933.31;;;6.73;100.00